China, Michigan
Current Conditions -  °F | °C
As of 5:37 PM on Friday 19 Dec 2014 (Local Time) from KPHN Reporting Station
Overcast Overcast  
Wind Chill: 28°   Ceiling: 2500
Heat Index: 28°   Visibility: 10mi
Dew Point: 21°   Wind: 0mph
Humidity: 74%   Direction: NA
Pressure: 30.28"   Gusts: NA
Location:  42.7808°N, 82.6288°W
Report Text: KPHN 192237Z AUTO 00000KT 10SM OVC025 M02/M06 A3028 RMK AO2
Loading
Personal Weather Stations






























Interactive Weather Map New forecast layout! Learn more

10-Day Weather Forecast

Advertisements
Track Severe Weather on mobile